createdAt,value
2018-08-10T00:00:04.288Z,29.3
2018-08-10T00:00:54.296Z,29.2
2018-08-10T00:01:44.414Z,29.3
2018-08-10T00:02:34.158Z,29.2
2018-08-10T00:03:24.218Z,29.2
2018-08-10T00:04:14.566Z,29.3
2018-08-10T00:05:04.708Z,29.2
2018-08-10T00:05:54.490Z,29.3
2018-08-10T00:06:44.800Z,29.2
2018-08-10T00:07:34.871Z,29.2
2018-08-10T00:08:23.845Z,29.3
2018-08-10T00:09:15.021Z,29.3
2018-08-10T00:10:05.031Z,29.2
2018-08-10T00:10:54.545Z,29.3
2018-08-10T00:11:44.052Z,29.2
2018-08-10T00:12:34.930Z,29.3
2018-08-10T00:13:24.986Z,29.2
2018-08-10T00:14:15.348Z,29.3
2018-08-10T00:15:05.176Z,29.2
2018-08-10T00:15:55.307Z,29.2
2018-08-10T00:16:45.524Z,29.3
2018-08-10T00:17:35.320Z,29.3
2018-08-10T00:18:25.117Z,29.2
2018-08-10T00:37:25.174Z,29.2
2018-08-10T00:38:14.962Z,29.2
2018-08-10T00:39:05.305Z,29.2
2018-08-10T00:39:55.375Z,29.3
2018-08-10T00:40:45.417Z,29.3
2018-08-10T00:41:34.919Z,29.3
2018-08-10T00:42:25.754Z,29.3
2018-08-10T00:43:15.616Z,29.2
2018-08-10T00:44:05.673Z,29.2
2018-08-10T00:44:55.868Z,29.2
2018-08-10T00:45:45.799Z,29.2
2018-08-10T00:46:35.899Z,29.2
2018-08-10T00:47:25.404Z,29.2
2018-08-10T00:48:15.484Z,29.3
2018-08-10T00:49:05.547Z,29.3
2018-08-10T00:49:56.018Z,29.3
2018-08-10T00:50:45.392Z,29.2
2018-08-10T00:51:36.270Z,29.3
2018-08-10T00:52:26.577Z,29.3
2018-08-10T00:53:16.141Z,29.3
2018-08-10T00:54:06.201Z,29.2
2018-08-10T00:54:56.306Z,29.2
2018-08-10T00:55:46.618Z,29.3
2018-08-10T00:56:36.119Z,29.3
2018-08-10T00:57:26.475Z,29.2
2018-08-10T00:58:17.006Z,29.2
2018-08-10T00:59:06.618Z,29.3
2018-08-10T00:59:56.956Z,29.2
2018-08-10T01:00:46.163Z,29.2
2018-08-10T01:01:36.515Z,29.2
2018-08-10T01:02:26.384Z,29.2
2018-08-10T01:03:17.187Z,29.2
2018-08-10T01:04:06.514Z,29.2
2018-08-10T01:04:56.883Z,29.2
2018-08-10T01:05:46.610Z,29.3
2018-08-10T01:06:36.943Z,29.3
2018-08-10T01:07:26.661Z,29.2
2018-08-10T01:08:16.297Z,29.2
2018-08-10T01:09:07.065Z,29.2
2018-08-10T01:09:57.484Z,29.2
2018-08-10T01:10:47.482Z,29.2
2018-08-10T01:11:37.535Z,29.3
2018-08-10T01:12:27.845Z,29.2
2018-08-10T01:13:18.163Z,29.2
2018-08-10T01:14:08.226Z,29.2
2018-08-10T01:14:57.815Z,29.3
2018-08-10T01:15:47.913Z,29.3
2018-08-10T01:16:38.383Z,29.3
2018-08-10T01:17:28.219Z,29.2
2018-08-10T01:18:18.335Z,29.2
2018-08-10T01:19:09.483Z,29.2
2018-08-10T01:19:58.476Z,29.2
2018-08-10T01:20:48.523Z,29.2
2018-08-10T01:21:38.284Z,29.2
2018-08-10T01:22:28.421Z,29.2
2018-08-10T01:23:18.727Z,29.2
2018-08-10T01:24:08.859Z,29.2
2018-08-10T01:24:58.880Z,29.2
2018-08-10T01:25:48.656Z,29.2
2018-08-10T01:26:38.981Z,29.2
2018-08-10T01:27:29.238Z,29.2
2018-08-10T01:28:18.612Z,29.2
2018-08-10T01:29:08.660Z,29.2
2018-08-10T01:29:59.200Z,29.2
2018-08-10T01:30:49.012Z,29.2
2018-08-10T01:31:39.392Z,29.2
2018-08-10T01:32:29.201Z,29.2
2018-08-10T01:33:18.986Z,29.2
2018-08-10T01:34:09.590Z,29.3
2018-08-10T01:34:59.777Z,29.3
2018-08-10T01:35:49.167Z,29.2
2018-08-10T01:36:39.479Z,29.2
2018-08-10T01:37:29.343Z,29.2
2018-08-10T01:38:20.124Z,29.2
2018-08-10T01:39:09.989Z,29.2
2018-08-10T01:40:14.316Z,29.2
2018-08-10T01:41:04.746Z,29.2
2018-08-10T01:41:39.902Z,29.2
2018-08-10T01:42:29.931Z,29.2
2018-08-10T01:43:19.989Z,29.2
2018-08-10T01:44:10.043Z,29.3
2018-08-10T01:45:00.390Z,29.2
2018-08-10T01:45:50.430Z,29.2
2018-08-10T01:47:30.269Z,29.2
2018-08-10T01:48:20.342Z,29.2
2018-08-10T01:49:10.675Z,29.2
2018-08-10T01:50:00.768Z,29.2
2018-08-10T01:50:50.822Z,29.2
2018-08-10T01:51:40.859Z,29.3
2018-08-10T01:52:30.713Z,29.2
2018-08-10T01:53:21.274Z,29.2
2018-08-10T01:54:10.525Z,29.2
2018-08-10T01:55:00.627Z,29.2
2018-08-10T01:56:05.947Z,29.2
2018-08-10T01:56:41.269Z,29.2
2018-08-10T01:57:31.057Z,29.2
2018-08-10T01:58:21.440Z,29.2
2018-08-10T01:59:11.012Z,29.3
2018-08-10T02:00:00.529Z,29.2
2018-08-10T02:00:50.519Z,29.2
2018-08-10T02:01:41.421Z,29.2
2018-08-10T02:02:31.210Z,29.3
2018-08-10T02:03:20.987Z,29.2
2018-08-10T02:04:11.616Z,29.2
2018-08-10T02:05:02.015Z,29.3
2018-08-10T02:05:52.075Z,29.2
2018-08-10T02:06:42.134Z,29.2
2018-08-10T02:07:31.889Z,29.2
2018-08-10T02:08:21.657Z,29.2
2018-08-10T02:09:11.709Z,29.3
2018-08-10T02:10:02.345Z,29.2
2018-08-10T02:10:52.441Z,29.2
2018-08-10T02:11:42.492Z,29.3
2018-08-10T02:12:32.364Z,29.2
2018-08-10T02:13:22.023Z,29.2
2018-08-10T02:14:12.656Z,29.2
2018-08-10T02:15:02.941Z,29.3
2018-08-10T02:15:52.878Z,29.3
2018-08-10T02:16:42.592Z,29.2
2018-08-10T02:17:32.341Z,29.3
2018-08-10T02:18:22.966Z,29.2
2018-08-10T02:19:13.175Z,29.3
2018-08-10T02:20:03.091Z,29.2
2018-08-10T02:20:53.235Z,29.2
2018-08-10T02:21:43.199Z,29.3
2018-08-10T02:22:33.339Z,29.2
2018-08-10T02:23:23.324Z,29.3
2018-08-10T02:24:13.393Z,29.3
2018-08-10T02:25:18.156Z,29.2
2018-08-10T02:25:53.315Z,29.2
2018-08-10T02:26:43.591Z,29.3
2018-08-10T02:27:33.482Z,29.3
2018-08-10T02:28:23.508Z,29.3
2018-08-10T02:29:13.295Z,29.2
2018-08-10T02:30:03.878Z,29.3
2018-08-10T02:30:53.873Z,29.3
2018-08-10T02:31:44.048Z,29.3
2018-08-10T02:32:33.833Z,29.3
2018-08-10T02:33:24.083Z,29.3
2018-08-10T02:34:13.612Z,29.2
2018-08-10T02:35:03.455Z,29.3
2018-08-10T02:35:54.148Z,29.2
2018-08-10T02:36:43.806Z,29.2
2018-08-10T02:37:34.227Z,29.3
2018-08-10T02:38:24.275Z,29.3
2018-08-10T02:39:14.334Z,29.2
2018-08-10T02:40:04.159Z,29.2
2018-08-10T02:40:53.911Z,29.3
2018-08-10T02:41:44.081Z,29.3
2018-08-10T02:42:34.911Z,29.2
2018-08-10T02:43:24.200Z,29.3
2018-08-10T02:44:14.250Z,29.2
2018-08-10T02:45:05.014Z,29.2
2018-08-10T02:45:54.353Z,29.3
2018-08-10T02:46:44.878Z,29.3
2018-08-10T02:47:34.759Z,29.3
2018-08-10T02:48:24.284Z,29.3
2018-08-10T02:49:14.914Z,29.2
2018-08-10T02:50:04.815Z,29.3
2018-08-10T02:50:54.745Z,29.2
2018-08-10T02:51:44.351Z,29.3
2018-08-10T02:52:34.381Z,29.3
2018-08-10T02:53:24.516Z,29.3
2018-08-10T02:54:14.525Z,29.2
2018-08-10T02:55:05.386Z,29.3
2018-08-10T02:55:55.438Z,29.3
2018-08-10T02:56:45.926Z,29.2
2018-08-10T02:57:35.987Z,29.3
2018-08-10T02:58:26.262Z,29.3
2018-08-10T02:59:16.080Z,29.3
2018-08-10T03:00:05.116Z,29.3
2018-08-10T03:00:55.154Z,29.3
2018-08-10T03:01:46.171Z,29.2
2018-08-10T03:02:35.585Z,29.3
2018-08-10T03:03:26.219Z,29.3
2018-08-10T03:04:16.253Z,29.3
2018-08-10T03:05:05.786Z,29.3
2018-08-10T03:05:56.118Z,29.3
2018-08-10T03:06:46.481Z,29.3
2018-08-10T03:07:36.785Z,29.3
2018-08-10T03:08:26.291Z,29.3
2018-08-10T03:09:16.383Z,29.2
2018-08-10T03:10:06.932Z,29.3
2018-08-10T03:10:56.523Z,29.3
2018-08-10T03:12:37.163Z,29.3
2018-08-10T03:13:26.749Z,29.3
2018-08-10T03:14:17.016Z,29.3
2018-08-10T03:15:07.376Z,29.3
2018-08-10T03:16:12.134Z,29.3
2018-08-10T03:16:47.103Z,29.3
2018-08-10T03:17:37.319Z,29.3
2018-08-10T03:18:26.830Z,29.3
2018-08-10T03:19:17.732Z,29.3
2018-08-10T03:20:07.781Z,29.3
2018-08-10T03:20:57.311Z,29.3
2018-08-10T03:21:48.049Z,29.3
2018-08-10T03:22:37.557Z,29.3
2018-08-10T03:23:27.778Z,29.3
2018-08-10T03:24:17.806Z,29.3
2018-08-10T03:25:07.701Z,29.3
2018-08-10T03:25:58.199Z,29.3
2018-08-10T03:26:47.644Z,29.3
2018-08-10T03:27:37.641Z,29.3
2018-08-10T03:28:27.901Z,29.3
2018-08-10T03:29:17.736Z,29.3
2018-08-10T03:30:08.362Z,29.3
2018-08-10T03:30:57.576Z,29.3
2018-08-10T03:31:47.979Z,29.3
2018-08-10T03:32:38.500Z,29.3
2018-08-10T03:33:28.763Z,29.3
2018-08-10T03:34:18.285Z,29.3
2018-08-10T03:35:08.944Z,29.3
2018-08-10T03:35:58.958Z,29.3
2018-08-10T03:36:49.044Z,29.3
2018-08-10T03:37:38.712Z,29.3
2018-08-10T03:38:29.172Z,29.3
2018-08-10T03:39:18.214Z,29.3
2018-08-10T03:40:08.800Z,29.3
2018-08-10T03:40:58.327Z,29.3
2018-08-10T03:41:48.717Z,29.3
2018-08-10T03:42:38.743Z,29.3
2018-08-10T03:43:29.090Z,29.3
2018-08-10T03:44:19.020Z,29.3
2018-08-10T03:45:09.134Z,29.3
2018-08-10T03:45:59.498Z,29.3
2018-08-10T03:46:49.962Z,29.3
2018-08-10T03:47:39.727Z,29.3
2018-08-10T03:48:29.102Z,29.3
2018-08-10T03:49:19.182Z,29.3
2018-08-10T03:50:09.058Z,29.3
2018-08-10T03:50:59.117Z,29.3
2018-08-10T03:51:49.462Z,29.3
2018-08-10T03:52:54.169Z,29.3
2018-08-10T03:53:45.014Z,29.3
2018-08-10T03:54:20.191Z,29.3
2018-08-10T03:55:09.927Z,29.3
2018-08-10T03:56:00.509Z,29.3
2018-08-10T03:56:49.989Z,29.3
2018-08-10T03:57:39.896Z,29.3
2018-08-10T03:58:29.658Z,29.3
2018-08-10T03:59:19.708Z,29.3
2018-08-10T04:00:10.470Z,29.3
2018-08-10T04:01:00.394Z,29.3
2018-08-10T04:01:50.251Z,29.3
2018-08-10T04:02:40.326Z,29.3
2018-08-10T04:03:30.091Z,29.3
2018-08-10T04:04:20.409Z,29.3
2018-08-10T04:05:10.678Z,29.3
2018-08-10T04:06:01.343Z,29.3
2018-08-10T04:06:50.853Z,29.3
2018-08-10T04:07:41.448Z,29.3
2018-08-10T04:08:31.244Z,29.3
2018-08-10T04:09:21.585Z,29.3
2018-08-10T04:10:10.839Z,29.3
2018-08-10T04:11:01.150Z,29.3
2018-08-10T04:11:51.807Z,29.3
2018-08-10T04:12:41.111Z,29.3
2018-08-10T04:13:46.295Z,29.3
2018-08-10T04:14:21.623Z,29.3
2018-08-10T04:15:11.566Z,29.3
2018-08-10T04:16:01.501Z,29.3
2018-08-10T04:16:51.809Z,29.3
2018-08-10T04:17:41.976Z,29.3
2018-08-10T04:18:31.714Z,29.3
2018-08-10T04:19:22.115Z,29.3
2018-08-10T04:20:11.557Z,29.3
2018-08-10T04:21:02.535Z,29.3
2018-08-10T04:21:51.699Z,29.3
2018-08-10T04:22:42.700Z,29.3
2018-08-10T04:23:32.662Z,29.3
2018-08-10T04:24:22.192Z,29.3
2018-08-10T04:25:12.307Z,29.3
2018-08-10T04:26:02.355Z,29.3
2018-08-10T04:26:52.389Z,29.3
2018-08-10T04:27:42.770Z,29.3
2018-08-10T04:28:32.525Z,29.3
2018-08-10T04:29:22.588Z,29.3
2018-08-10T04:30:11.986Z,29.3
2018-08-10T05:06:58.103Z,29.3
2018-08-10T05:07:47.868Z,29.3
2018-08-10T05:08:38.226Z,29.3
2018-08-10T05:09:28.580Z,29.3
2018-08-10T05:10:18.032Z,29.3
2018-08-10T05:11:07.597Z,29.3
2018-08-10T05:11:58.784Z,29.3
2018-08-10T05:12:48.581Z,29.3
2018-08-10T05:13:38.288Z,29.3
2018-08-10T05:14:28.661Z,29.3
2018-08-10T05:15:18.421Z,29.3
2018-08-10T05:16:08.781Z,29.3
2018-08-10T05:16:58.843Z,29.3
2018-08-10T05:17:47.455Z,29.3
2018-08-10T05:18:39.304Z,29.3
2018-08-10T05:19:29.021Z,29.3
2018-08-10T05:20:19.378Z,29.3
2018-08-10T05:21:09.444Z,29.3
2018-08-10T05:21:59.222Z,29.3
2018-08-10T05:22:49.299Z,29.3
2018-08-10T05:23:39.066Z,29.3
2018-08-10T05:24:29.170Z,29.3
2018-08-10T05:25:18.898Z,29.3
2018-08-10T05:26:09.573Z,29.3
2018-08-10T05:26:58.762Z,29.3
2018-08-10T05:27:49.983Z,29.4
2018-08-10T05:28:40.035Z,29.3
2018-08-10T05:29:29.816Z,29.4
2018-08-10T05:30:19.893Z,29.3
2018-08-10T05:31:09.654Z,29.3
2018-08-10T05:32:00.308Z,29.4
2018-08-10T05:32:50.067Z,29.3
2018-08-10T05:33:40.396Z,29.4
2018-08-10T05:34:29.347Z,29.3
2018-08-10T05:35:19.955Z,29.4
2018-08-10T05:36:09.591Z,29.4
2018-08-10T05:37:00.088Z,29.4
2018-08-10T05:37:50.489Z,29.4
2018-08-10T05:38:40.805Z,29.4
2018-08-10T05:39:29.741Z,29.4
2018-08-10T05:40:20.066Z,29.4
2018-08-10T05:41:10.422Z,29.4
2018-08-10T05:42:01.050Z,29.4
2018-08-10T05:42:50.580Z,29.4
2018-08-10T05:43:40.078Z,29.4
2018-08-10T05:44:30.971Z,29.4
2018-08-10T05:45:19.873Z,29.4
2018-08-10T05:46:10.798Z,29.4
2018-08-10T05:47:02.660Z,29.4
2018-08-10T05:47:50.122Z,32.8
2018-08-10T05:48:41.313Z,38.6
2018-08-10T05:49:30.778Z,39
2018-08-10T05:50:21.117Z,40.8
2018-08-10T05:51:11.523Z,40.9
2018-08-10T05:52:01.632Z,40.2
2018-08-10T05:52:51.979Z,39.4
2018-08-10T05:53:41.422Z,38.6
2018-08-10T05:54:32.004Z,37.9
2018-08-10T05:55:21.543Z,37.1
2018-08-10T05:56:11.864Z,36.3
2018-08-10T05:57:01.694Z,35.6
2018-08-10T05:57:51.721Z,34.8
2018-08-10T05:58:42.119Z,34.1
2018-08-10T05:59:31.857Z,33.4
2018-08-10T06:00:22.499Z,32.9
2018-08-10T06:01:12.278Z,32.4
2018-08-10T06:02:02.587Z,31.8
2018-08-10T06:02:52.691Z,31.7
2018-08-10T06:03:43.511Z,33.8
2018-08-10T06:04:32.539Z,35.2
2018-08-10T06:05:22.301Z,35.9
2018-08-10T06:06:12.956Z,36.2
2018-08-10T06:07:02.711Z,36.3
2018-08-10T06:07:52.781Z,36.2
2018-08-10T06:08:42.582Z,36.1
2018-08-10T06:09:33.195Z,36
2018-08-10T06:10:23.296Z,36.1
2018-08-10T06:11:12.748Z,36.3
2018-08-10T06:12:03.382Z,36.4
2018-08-10T06:12:53.468Z,36.6
2018-08-10T06:13:43.496Z,36.8
2018-08-10T06:14:33.284Z,36.8
2018-08-10T06:15:23.796Z,36.9
2018-08-10T06:16:13.142Z,37
2018-08-10T06:17:03.221Z,37.2
2018-08-10T06:17:53.548Z,37.3
2018-08-10T06:18:43.587Z,37.4
2018-08-10T06:19:35.155Z,37.6
2018-08-10T06:20:23.739Z,37.7
2018-08-10T06:21:13.527Z,37.8
2018-08-10T06:22:03.639Z,37.9
2018-08-10T06:22:54.412Z,38
2018-08-10T06:23:43.449Z,38.1
2018-08-10T06:24:33.252Z,38.3
2018-08-10T06:25:23.633Z,38.3
2018-08-10T06:26:14.496Z,38.4
2018-08-10T06:27:03.985Z,38.6
2018-08-10T06:27:55.939Z,38.8
2018-08-10T06:28:43.829Z,38.9
2018-08-10T06:29:34.767Z,39
2018-08-10T06:30:23.244Z,39.1
2018-08-10T06:31:13.786Z,39.3
2018-08-10T06:32:03.526Z,39.4
2018-08-10T06:32:54.756Z,39.5
2018-08-10T06:33:45.837Z,39.6
2018-08-10T06:34:34.864Z,39.8
2018-08-10T06:35:24.918Z,39.9
2018-08-10T06:36:14.988Z,40
2018-08-10T06:37:05.326Z,40.1
2018-08-10T06:37:54.828Z,40.3
2018-08-10T06:38:45.453Z,40.4
2018-08-10T06:39:34.953Z,40.5
2018-08-10T06:40:25.316Z,40.6
2018-08-10T06:41:14.795Z,40.8
2018-08-10T06:42:04.877Z,40.9
2018-08-10T06:42:55.518Z,41
2018-08-10T06:43:45.830Z,41.1
2018-08-10T06:44:35.933Z,41.2
2018-08-10T06:45:25.777Z,41.3
2018-08-10T06:46:14.317Z,41.4
2018-08-10T06:47:05.536Z,41.6
2018-08-10T06:47:55.932Z,41.7
2018-08-10T06:48:46.313Z,41.8
2018-08-10T06:49:35.460Z,41.9
2018-08-10T06:50:26.398Z,42.1
2018-08-10T06:51:17.259Z,42.2
2018-08-10T06:52:06.510Z,42.3
2018-08-10T06:52:55.686Z,42.4
2018-08-10T06:53:46.657Z,42.5
2018-08-10T06:54:36.650Z,42.6
2018-08-10T06:55:26.741Z,42.8
2018-08-10T06:56:17.617Z,42.9
2018-08-10T06:57:06.885Z,42.9
2018-08-10T06:57:56.372Z,43.1
2018-08-10T06:58:45.949Z,43.2
2018-08-10T06:59:36.306Z,43.3
2018-08-10T07:00:26.939Z,43.4
2018-08-10T07:01:16.933Z,43.6
2018-08-10T07:02:07.239Z,43.7
2018-08-10T07:02:57.074Z,43.8
2018-08-10T07:03:47.406Z,43.9
2018-08-10T07:04:36.619Z,44.1
2018-08-10T07:05:27.599Z,44.2
2018-08-10T07:06:17.068Z,44.3
2018-08-10T07:07:07.119Z,44.4
2018-08-10T07:07:58.279Z,44.5
2018-08-10T07:08:47.271Z,44.6
2018-08-10T07:09:37.879Z,44.8
2018-08-10T07:10:27.372Z,44.9
2018-08-10T07:11:18.061Z,45
2018-08-10T07:12:07.480Z,45.1
2018-08-10T07:12:57.233Z,45.3
2018-08-10T07:13:47.789Z,45.4
2018-08-10T07:14:38.285Z,45.5
2018-08-10T07:15:28.048Z,45.6
2018-08-10T07:16:18.420Z,45.7
2018-08-10T07:17:07.660Z,45.8
2018-08-10T07:17:57.371Z,46
2018-08-10T07:18:48.363Z,46.1
2018-08-10T07:19:38.093Z,46.2
2018-08-10T07:20:28.433Z,46.4
2018-08-10T07:21:18.193Z,46.5
2018-08-10T07:22:08.586Z,46.6
2018-08-10T07:22:58.615Z,46.8
2018-08-10T07:23:49.047Z,46.8
2018-08-10T07:24:38.464Z,46.9
2018-08-10T07:25:28.528Z,47.1
2018-08-10T07:26:19.169Z,47.2
2018-08-10T07:27:09.410Z,47.3
2018-08-10T07:27:59.072Z,47.5
2018-08-10T07:28:49.087Z,47.6
2018-08-10T07:29:39.381Z,47.8
2018-08-10T07:30:29.497Z,47.9
2018-08-10T07:31:19.244Z,48
2018-08-10T07:32:09.303Z,48.1
2018-08-10T07:32:59.181Z,48.3
2018-08-10T07:33:49.426Z,48.4
2018-08-10T07:34:39.827Z,48.5
2018-08-10T07:35:29.834Z,48.6
2018-08-10T07:36:19.677Z,48.8
2018-08-10T07:37:09.697Z,48.9
2018-08-10T07:37:59.755Z,49
2018-08-10T07:38:49.857Z,49.2
2018-08-10T07:39:39.347Z,49.3
2018-08-10T07:40:30.016Z,49.4
2018-08-10T07:41:20.051Z,49.6
2018-08-10T07:42:09.528Z,49.7
2018-08-10T07:43:00.219Z,49.8
2018-08-10T07:43:50.536Z,49.9
2018-08-10T07:44:40.096Z,50.1
2018-08-10T07:45:29.907Z,50.2
2018-08-10T07:46:20.578Z,50.3
2018-08-10T07:47:10.526Z,50.4
2018-08-10T07:48:00.849Z,50.6
2018-08-10T07:48:50.658Z,50.7
2018-08-10T07:49:40.714Z,50.8
2018-08-10T07:50:30.509Z,50.9
2018-08-10T07:51:20.850Z,51.1
2018-08-10T07:52:11.207Z,51.2
2018-08-10T07:53:00.033Z,51.3
2018-08-10T07:53:51.307Z,51.4
2018-08-10T07:54:41.093Z,51.6
2018-08-10T07:56:20.415Z,51.8
2018-08-10T07:58:01.049Z,52.1
2018-08-10T07:58:51.701Z,52.2
2018-08-10T07:59:41.194Z,52.3
2018-08-10T08:00:31.520Z,52.4
2018-08-10T08:01:21.963Z,52.6
2018-08-10T08:02:11.083Z,52.7
2018-08-10T08:03:01.444Z,52.8
2018-08-10T08:03:51.818Z,52.9
2018-08-10T08:04:41.579Z,53.1
2018-08-10T08:05:31.688Z,53.3
2018-08-10T08:06:22.325Z,53.4
2018-08-10T08:07:17.012Z,53.4
2018-08-10T08:08:02.604Z,53.6
2018-08-10T08:08:52.159Z,53.8
2018-08-10T08:09:42.545Z,53.8
2018-08-10T08:10:32.268Z,53.9
2018-08-10T08:11:22.354Z,54.1
2018-08-10T08:12:12.717Z,54.3
2018-08-10T08:13:02.546Z,54.3
2018-08-10T08:13:53.635Z,54.4
2018-08-10T08:14:42.095Z,54.6
2018-08-10T08:15:32.429Z,54.7
2018-08-10T08:16:22.215Z,54.9
2018-08-10T08:17:13.158Z,54.9
2018-08-10T08:18:03.025Z,55.1
2018-08-10T08:18:52.413Z,55.2
2018-08-10T08:19:44.323Z,55.3
2018-08-10T08:20:33.124Z,55.4
2018-08-10T08:21:22.872Z,55.6
2018-08-10T08:22:13.580Z,55.6
2018-08-10T08:23:03.041Z,55.8
2018-08-10T08:23:52.883Z,55.9
2018-08-10T08:24:43.129Z,56
2018-08-10T08:25:33.033Z,56.1
2018-08-10T08:26:23.902Z,56.3
2018-08-10T08:27:14.531Z,56.4
2018-08-10T08:28:03.745Z,56.5
2018-08-10T08:28:53.751Z,56.6
2018-08-10T08:29:43.551Z,56.8
2018-08-10T08:30:33.910Z,56.9
2018-08-10T08:31:23.414Z,56.9
2018-08-10T08:32:13.208Z,57.1
2018-08-10T08:33:04.338Z,57.1
2018-08-10T08:33:54.454Z,57.3
2018-08-10T08:34:45.385Z,57.4
2018-08-10T08:35:32.808Z,57.5
2018-08-10T08:36:24.366Z,57.6
2018-08-10T08:37:14.220Z,57.7
2018-08-10T08:38:04.794Z,57.8
2018-08-10T08:38:54.519Z,57.9
2018-08-10T08:39:44.604Z,58
2018-08-10T08:40:34.383Z,58.1
2018-08-10T08:41:23.860Z,58.3
2018-08-10T08:42:14.775Z,58.4
2018-08-10T08:43:04.895Z,58.4
2018-08-10T08:43:54.897Z,58.5
2018-08-10T08:44:44.451Z,58.4
2018-08-10T08:45:35.209Z,58.5
2018-08-10T08:46:27.805Z,58.6
2018-08-10T08:47:15.168Z,58.6
2018-08-10T08:48:05.257Z,58.4
2018-08-10T08:48:55.044Z,58.1
2018-08-10T08:49:44.889Z,57.8
2018-08-10T08:50:34.575Z,57.6
2018-08-10T08:51:25.812Z,57.7
2018-08-10T08:52:15.882Z,58
2018-08-10T08:53:05.651Z,58.3
2018-08-10T08:53:56.076Z,58.3
2018-08-10T08:54:46.156Z,58
2018-08-10T08:55:36.145Z,57.7
2018-08-10T08:56:25.333Z,57.5
2018-08-10T08:57:17.073Z,57.4
2018-08-10T08:58:06.040Z,57.4
2018-08-10T08:58:56.092Z,57.4
2018-08-10T08:59:46.153Z,57.3
2018-08-10T09:00:36.222Z,57.2
2018-08-10T09:01:26.022Z,57.1
2018-08-10T09:02:16.330Z,57.1
2018-08-10T09:03:06.111Z,57.1
2018-08-10T09:03:56.191Z,57.5
2018-08-10T09:21:13.045Z,57.8
2018-08-10T09:22:03.616Z,57.6
2018-08-10T09:22:53.182Z,57.5
2018-08-10T09:23:43.472Z,57.6
2018-08-10T09:24:33.782Z,58.1
2018-08-10T09:26:13.607Z,58.7
2018-08-10T09:27:04.900Z,58.4
2018-08-10T09:27:54.116Z,58.1
2018-08-10T09:28:44.114Z,57.9
2018-08-10T09:29:34.441Z,57.9
2018-08-10T09:30:23.973Z,57.9
2018-08-10T09:32:04.401Z,57.6
2018-08-10T09:32:54.055Z,57.5
2018-08-10T09:33:44.333Z,57.5
2018-08-10T09:34:34.901Z,57.6
2018-08-10T09:35:24.638Z,57.9
2018-08-10T09:36:15.011Z,57.9
2018-08-10T09:37:05.046Z,57.8
2018-08-10T09:37:54.846Z,57.5
2018-08-10T09:38:45.009Z,57.3
2018-08-10T09:39:34.661Z,57.1
2018-08-10T09:40:24.939Z,57.1
2018-08-10T09:41:14.785Z,57.3
2018-08-10T09:42:05.550Z,57.7
2018-08-10T09:42:55.063Z,58.1
2018-08-10T09:43:45.684Z,58.4
2018-08-10T09:44:34.516Z,58.6
2018-08-10T09:46:15.483Z,58.5
2018-08-10T09:47:05.022Z,58.7
2018-08-10T09:47:55.425Z,58.9
2018-08-10T09:48:45.403Z,59.2
2018-08-10T09:49:35.785Z,59.4
2018-08-10T09:50:25.848Z,59.5
2018-08-10T09:51:16.130Z,59.6
2018-08-10T09:52:05.420Z,59.7
2018-08-10T09:52:56.290Z,59.8
2018-08-10T09:53:46.328Z,59.9
2018-08-10T09:54:35.898Z,60.1
2018-08-10T09:55:26.189Z,60.1
2018-08-10T09:56:15.678Z,60.3
2018-08-10T09:57:06.028Z,60.3
2018-08-10T09:57:56.701Z,60.4
2018-08-10T09:58:45.868Z,60.6
2018-08-10T09:59:36.224Z,60.6
2018-08-10T10:00:26.603Z,60.7
2018-08-10T10:01:16.401Z,60.8
2018-08-10T10:02:07.040Z,60.9
2018-08-10T10:02:56.802Z,60.9
2018-08-10T10:03:47.141Z,61
2018-08-10T10:04:36.361Z,61.1
2018-08-10T10:05:27.294Z,61.2
2018-08-10T10:06:16.562Z,61.3
2018-08-10T10:07:07.414Z,61.3
2018-08-10T10:07:56.898Z,61.4
2018-08-10T10:08:47.254Z,61.4
2018-08-10T10:09:37.441Z,61.5
2018-08-10T10:10:27.105Z,61.6
2018-08-10T10:11:17.698Z,61.7
2018-08-10T10:12:07.543Z,61.8
2018-08-10T10:12:57.565Z,61.8
2018-08-10T10:13:47.921Z,61.8
2018-08-10T10:14:37.798Z,61.9
2018-08-10T10:15:27.283Z,61.9
2018-08-10T10:16:18.227Z,62.1
2018-08-10T10:17:08.022Z,62.1
2018-08-10T10:17:58.628Z,62.2
2018-08-10T10:18:48.150Z,62.3
2018-08-10T10:19:37.314Z,62.3
2018-08-10T10:20:27.812Z,62.4
2018-08-10T10:21:18.651Z,62.4
2018-08-10T10:22:08.407Z,62.4
2018-08-10T10:22:58.810Z,62.6
2018-08-10T10:23:48.220Z,62.6
2018-08-10T10:24:38.574Z,62.6
2018-08-10T10:25:28.335Z,62.7
2018-08-10T10:26:18.714Z,62.8
2018-08-10T10:27:09.252Z,62.8
2018-08-10T10:27:58.123Z,62.9
2018-08-10T10:28:48.319Z,62.9
2018-08-10T10:29:39.271Z,63
2018-08-10T10:30:29.072Z,63.1
2018-08-10T10:31:19.132Z,63.1
2018-08-10T10:32:08.585Z,63.2
2018-08-10T10:32:59.016Z,63.3
2018-08-10T10:33:49.296Z,63.3
2018-08-10T10:34:39.668Z,63.4
2018-08-10T10:35:29.642Z,63.4
2018-08-10T10:36:19.707Z,63.5
2018-08-10T10:37:09.473Z,63.6
2018-08-10T10:37:59.840Z,63.6
2018-08-10T10:38:48.542Z,63.7
2018-08-10T10:39:39.950Z,63.7
2018-08-10T10:40:29.734Z,63.7
2018-08-10T10:41:19.991Z,63.8
2018-08-10T10:42:09.661Z,63.8
2018-08-10T10:43:00.209Z,63.9
2018-08-10T10:43:50.040Z,63.9
2018-08-10T10:44:39.246Z,64
2018-08-10T10:45:30.157Z,64.1
2018-08-10T10:46:20.499Z,64.1
2018-08-10T10:47:10.556Z,64.2
2018-08-10T10:48:00.048Z,64.3
2018-08-10T10:48:52.029Z,64.3
2018-08-10T10:49:39.635Z,64.3
2018-08-10T10:50:30.543Z,64.4
2018-08-10T10:51:20.299Z,64.4
2018-08-10T10:52:10.644Z,64.5
2018-08-10T10:53:00.476Z,64.6
2018-08-10T10:53:51.025Z,64.6
2018-08-10T10:54:40.547Z,64.7
2018-08-10T10:55:30.965Z,64.7
2018-08-10T10:56:21.129Z,64.8
2018-08-10T10:57:11.039Z,64.9
2018-08-10T10:58:01.095Z,64.9
2018-08-10T10:58:50.912Z,64.9
2018-08-10T10:59:40.953Z,65
2018-08-10T11:00:30.747Z,65
2018-08-10T11:01:21.629Z,65.1
2018-08-10T11:02:11.410Z,65.1
2018-08-10T11:03:01.774Z,65.2
2018-08-10T11:03:51.265Z,65.2
2018-08-10T11:04:41.574Z,65.3
2018-08-10T11:05:31.481Z,65.3
2018-08-10T11:06:22.649Z,65.4
2018-08-10T11:07:12.062Z,65.4
2018-08-10T11:08:01.872Z,65.4
2018-08-10T11:08:51.898Z,65.5
2018-08-10T11:09:42.250Z,65.5
2018-08-10T11:10:32.044Z,65.6
2018-08-10T11:11:22.374Z,65.6
2018-08-10T11:12:12.451Z,65.6
2018-08-10T11:13:02.264Z,65.7
2018-08-10T11:13:52.048Z,65.8
2018-08-10T11:14:41.826Z,65.8
2018-08-10T11:15:32.486Z,65.8
2018-08-10T11:16:22.223Z,65.9
2018-08-10T11:17:12.573Z,65.9
2018-08-10T11:18:03.611Z,65.7
2018-08-10T11:18:53.049Z,65.6
2018-08-10T11:19:42.244Z,65.6
2018-08-10T11:20:32.916Z,65.6
2018-08-10T11:21:22.959Z,65.6
2018-08-10T11:22:13.039Z,65.7
2018-08-10T11:23:02.794Z,65.7
2018-08-10T11:23:53.203Z,65.8
2018-08-10T11:24:43.225Z,65.8
2018-08-10T11:25:33.699Z,65.8
2018-08-10T11:26:23.661Z,65.8
2018-08-10T11:27:12.572Z,65.8
2018-08-10T11:28:03.766Z,65.8
2018-08-10T11:28:53.260Z,65.9
2018-08-10T11:29:43.323Z,65.9
2018-08-10T11:30:33.983Z,66
2018-08-10T11:31:23.752Z,66
2018-08-10T11:32:13.642Z,66.1
2018-08-10T11:33:04.198Z,66.1
2018-08-10T11:33:53.924Z,66.2
2018-08-10T11:34:43.998Z,66.3
2018-08-10T11:35:33.506Z,66.3
2018-08-10T11:36:23.873Z,66.1
2018-08-10T11:37:14.461Z,65.9
2018-08-10T11:38:04.244Z,65.9
2018-08-10T11:38:54.335Z,65.9
2018-08-10T11:39:44.155Z,66
2018-08-10T11:40:34.015Z,66.1
2018-08-10T11:41:24.392Z,66
2018-08-10T11:42:14.635Z,66.1
2018-08-10T11:43:04.655Z,66.1
2018-08-10T11:43:54.692Z,66.1
2018-08-10T11:44:45.062Z,66.2
2018-08-10T11:45:34.581Z,66.3
2018-08-10T11:46:25.147Z,66.4
2018-08-10T11:47:14.971Z,66.4
2018-08-10T11:48:05.025Z,66.4
2018-08-10T11:48:55.104Z,66.4
2018-08-10T11:49:44.883Z,66.5
2018-08-10T11:50:34.669Z,66.6
2018-08-10T11:51:25.284Z,66.6
2018-08-10T11:52:15.600Z,66.7
2018-08-10T11:53:05.134Z,66.7
2018-08-10T11:53:55.504Z,66.8
2018-08-10T11:54:45.542Z,66.8
2018-08-10T11:55:35.419Z,66.8
2018-08-10T11:56:25.792Z,66.9
2018-08-10T11:57:15.599Z,66.9
2018-08-10T11:58:05.586Z,66.9
2018-08-10T11:58:56.178Z,67
2018-08-10T11:59:45.395Z,67
2018-08-10T12:00:35.518Z,67
2018-08-10T12:01:25.791Z,67.1
2018-08-10T12:02:15.862Z,67.1
2018-08-10T12:03:06.605Z,67.1
2018-08-10T12:03:55.988Z,67.1
2018-08-10T12:04:46.042Z,67.1
2018-08-10T12:05:36.151Z,67.2
2018-08-10T12:06:26.485Z,67.2
2018-08-10T12:07:16.582Z,67.3
2018-08-10T12:08:06.892Z,67.3
2018-08-10T12:08:56.960Z,67.3
2018-08-10T12:09:46.706Z,67.3
2018-08-10T12:10:37.072Z,67.3
2018-08-10T12:11:26.293Z,67.4
2018-08-10T12:12:16.589Z,67.4
2018-08-10T12:13:06.987Z,67.4
2018-08-10T12:13:57.015Z,67.4
2018-08-10T12:14:46.856Z,67.4
2018-08-10T12:15:37.427Z,67.5
2018-08-10T12:16:27.248Z,67.4
2018-08-10T12:17:16.749Z,67.6
2018-08-10T12:18:07.376Z,67.6
2018-08-10T12:18:57.614Z,67.6
2018-08-10T12:19:47.274Z,67.6
2018-08-10T12:20:37.861Z,67.6
2018-08-10T12:21:27.083Z,67.7
2018-08-10T12:22:18.082Z,67.7
2018-08-10T12:23:07.783Z,67.7
2018-08-10T12:23:57.822Z,67.7